首页
METAR-TAF:

METAR-TAF

机场 :

邁諾特, 北达科他州, 美国

纬度: 48-25N, 经度: 101-21W, 海拔: 508米

当前天气观测

该预报发布于3小时和38分钟前的16:55 UTC
风速15节,风向北转西北
温度 25°C
湿度 36%
气压 1011 hPa
能見度: 16.1公里
天空无云

METAR: KMIB 251655Z AUTO 34015KT 10SM CLR 25/09 A2984 RMK AO2 SLP106 T02450092

时间: 15:33 (20:33 UTC)

预报

该预报发布于3小时和33分钟前的17:00 UTC
预报有效从25日的 17点(UTC)到 26日的 23点(UTC)
风速12节,风向西北,有时为18节阵风
能见度10公里或以上
天空无云
成为
从 26日的 01点(UTC)到 26日的 02点(UTC)
风速9节,风向北转西北
能见度10公里或以上
少量云层高于6000英尺
多云层高于12000英尺
成为
从 26日的 09点(UTC)到 26日的 10点(UTC)
风速6节,风向多变
能見度: 8000
散云层高于1000英尺
阴天层高于2000英尺
轻雾
短暂存在
从 26日的 11点(UTC)到 26日的 14点(UTC)
能見度: 4800
多云层高于1000英尺
轻雾
成为
从 26日的 17点(UTC)到 26日的 18点(UTC)
风速6节,风向多变
能见度10公里或以上
散云层高于5000英尺
多云层高于7000英尺

TAF: KMIB 251700Z 2517/2623 32012G18KT 9999 SKC QNH2984INS BECMG 2601/2602 33009KT 9999 FEW060 BKN120 QNH2989INS BECMG 2609/2610 VRB06KT 8000 BR SCT010 OVC020 QNH3004INS TEMPO 2611/2614 4800 BR BKN010 BECMG 2617/2618 VRB06KT 9999 NSW SCT050 BKN070 QNH2999INS TX27/2521Z TN14/2609Z

超过4000个机场的气象观测和天气预报(METAR&TAF报告)。

可查询的气象台以黄色和红色小点在地图上表示。

将鼠标移到小点上方,可查看气象台名称。

然后点击查看天气观测和预报。

如需切换地图:点击带黑十字的绿色按钮放大地图;点击带横线的绿色按钮缩小地图;或者点击绿色箭头查看邻近地区的地图。


METAR-TAF: